sensor_id;sensor_type;location;lat;lon;timestamp;pressure;altitude;pressure_sealevel;temperature;humidity
39267;BME280;24967;51.154;13.812;2023-02-28T00:01:21;100843.50;;;2.21;73.16
39267;BME280;24967;51.154;13.812;2023-02-28T00:03:49;100847.00;;;2.21;73.05
39267;BME280;24967;51.154;13.812;2023-02-28T00:06:17;100837.34;;;2.22;73.14
39267;BME280;24967;51.154;13.812;2023-02-28T00:08:44;100837.28;;;2.23;73.05
39267;BME280;24967;51.154;13.812;2023-02-28T00:11:14;100839.00;;;2.24;73.43
39267;BME280;24967;51.154;13.812;2023-02-28T00:13:43;100838.06;;;2.25;72.91
39267;BME280;24967;51.154;13.812;2023-02-28T00:16:14;100832.38;;;2.16;73.29
39267;BME280;24967;51.154;13.812;2023-02-28T00:18:41;100835.63;;;2.21;73.09
39267;BME280;24967;51.154;13.812;2023-02-28T00:21:10;100836.50;;;2.21;73.20
39267;BME280;24967;51.154;13.812;2023-02-28T00:23:37;100833.00;;;2.21;73.05
39267;BME280;24967;51.154;13.812;2023-02-28T00:26:05;100828.81;;;2.17;72.62
39267;BME280;24967;51.154;13.812;2023-02-28T00:28:34;100830.47;;;2.19;73.18
39267;BME280;24967;51.154;13.812;2023-02-28T00:31:02;100827.31;;;2.11;73.09
39267;BME280;24967;51.154;13.812;2023-02-28T00:33:30;100825.47;;;1.93;73.33
39267;BME280;24967;51.154;13.812;2023-02-28T00:36:02;100823.94;;;1.87;73.42
39267;BME280;24967;51.154;13.812;2023-02-28T00:38:30;100827.44;;;1.88;73.11
39267;BME280;24967;51.154;13.812;2023-02-28T00:40:57;100828.53;;;1.82;73.06
39267;BME280;24967;51.154;13.812;2023-02-28T00:43:30;100833.78;;;1.82;73.77
39267;BME280;24967;51.154;13.812;2023-02-28T00:45:59;100840.28;;;1.51;73.99
39267;BME280;24967;51.154;13.812;2023-02-28T00:48:26;100837.53;;;1.54;73.58
39267;BME280;24967;51.154;13.812;2023-02-28T00:50:53;100841.97;;;1.52;73.92
39267;BME280;24967;51.154;13.812;2023-02-28T00:53:20;100844.72;;;1.49;73.87
39267;BME280;24967;51.154;13.812;2023-02-28T00:55:47;100835.09;;;1.50;73.69
39267;BME280;24967;51.154;13.812;2023-02-28T00:58:13;100832.84;;;1.41;73.35
39267;BME280;24967;51.154;13.812;2023-02-28T01:00:40;100825.13;;;1.36;73.16
39267;BME280;24967;51.154;13.812;2023-02-28T01:03:08;100829.53;;;1.13;74.05
39267;BME280;24967;51.154;13.812;2023-02-28T01:05:34;100823.06;;;1.00;74.51
39267;BME280;24967;51.154;13.812;2023-02-28T01:08:01;100824.63;;;1.04;74.60
39267;BME280;24967;51.154;13.812;2023-02-28T01:10:28;100830.72;;;1.05;74.59
39267;BME280;24967;51.154;13.812;2023-02-28T01:12:56;100834.06;;;1.08;74.09
39267;BME280;24967;51.154;13.812;2023-02-28T01:15:23;100823.66;;;1.07;74.62
39267;BME280;24967;51.154;13.812;2023-02-28T01:17:49;100820.94;;;1.10;74.06
39267;BME280;24967;51.154;13.812;2023-02-28T01:20:17;100827.50;;;1.20;73.76
39267;BME280;24967;51.154;13.812;2023-02-28T01:22:44;100822.72;;;1.09;73.90
39267;BME280;24967;51.154;13.812;2023-02-28T01:25:10;100820.94;;;1.10;73.53
39267;BME280;24967;51.154;13.812;2023-02-28T01:27:37;100826.94;;;1.12;73.55
39267;BME280;24967;51.154;13.812;2023-02-28T01:30:05;100816.47;;;1.12;73.46
39267;BME280;24967;51.154;13.812;2023-02-28T01:32:32;100812.38;;;1.05;73.31
39267;BME280;24967;51.154;13.812;2023-02-28T01:34:58;100816.06;;;0.77;72.70
39267;BME280;24967;51.154;13.812;2023-02-28T01:37:26;100816.44;;;0.90;72.55
39267;BME280;24967;51.154;13.812;2023-02-28T01:39:53;100824.16;;;0.95;72.54
39267;BME280;24967;51.154;13.812;2023-02-28T01:42:19;100816.41;;;0.91;71.93
39267;BME280;24967;51.154;13.812;2023-02-28T01:44:59;100813.94;;;0.87;72.46
39267;BME280;24967;51.154;13.812;2023-02-28T01:47:29;100809.88;;;0.80;72.03
39267;BME280;24967;51.154;13.812;2023-02-28T01:49:58;100816.88;;;0.79;71.78
39267;BME280;24967;51.154;13.812;2023-02-28T01:52:26;100815.09;;;0.80;71.81
39267;BME280;24967;51.154;13.812;2023-02-28T01:54:55;100816.22;;;0.73;71.63
39267;BME280;24967;51.154;13.812;2023-02-28T01:57:25;100808.66;;;0.65;71.54
39267;BME280;24967;51.154;13.812;2023-02-28T01:59:57;100803.59;;;0.60;71.39
39267;BME280;24967;51.154;13.812;2023-02-28T02:02:26;100814.00;;;0.62;71.67
39267;BME280;24967;51.154;13.812;2023-02-28T02:04:56;100810.53;;;0.61;71.42
39267;BME280;24967;51.154;13.812;2023-02-28T02:07:29;100809.84;;;0.56;71.68
39267;BME280;24967;51.154;13.812;2023-02-28T02:10:00;100813.50;;;0.52;71.77
39267;BME280;24967;51.154;13.812;2023-02-28T02:12:36;100811.84;;;0.50;71.34
39267;BME280;24967;51.154;13.812;2023-02-28T02:15:12;100813.66;;;0.48;71.38
39267;BME280;24967;51.154;13.812;2023-02-28T02:17:41;100809.56;;;0.40;71.55
39267;BME280;24967;51.154;13.812;2023-02-28T02:20:32;100809.59;;;0.39;71.74
39267;BME280;24967;51.154;13.812;2023-02-28T02:23:33;100800.38;;;0.29;71.76
39267;BME280;24967;51.154;13.812;2023-02-28T02:32:16;100799.75;;;0.22;71.73
39267;BME280;24967;51.154;13.812;2023-02-28T02:34:54;100795.59;;;0.16;71.93
39267;BME280;24967;51.154;13.812;2023-02-28T02:37:31;100800.13;;;0.11;71.79
39267;BME280;24967;51.154;13.812;2023-02-28T02:40:09;100801.03;;;0.10;72.01
39267;BME280;24967;51.154;13.812;2023-02-28T02:42:41;100795.94;;;0.06;72.07
39267;BME280;24967;51.154;13.812;2023-02-28T02:45:14;100796.03;;;0.04;72.09
39267;BME280;24967;51.154;13.812;2023-02-28T02:47:43;100797.03;;;0.00;72.06
39267;BME280;24967;51.154;13.812;2023-02-28T02:50:15;100803.91;;;0.03;72.16
39267;BME280;24967;51.154;13.812;2023-02-28T02:52:49;100799.81;;;-0.05;72.23
39267;BME280;24967;51.154;13.812;2023-02-28T02:55:18;100803.16;;;-0.01;72.09
39267;BME280;24967;51.154;13.812;2023-02-28T02:57:48;100808.50;;;-0.04;72.13
39267;BME280;24967;51.154;13.812;2023-02-28T03:00:19;100804.19;;;-0.05;71.86
39267;BME280;24967;51.154;13.812;2023-02-28T03:02:50;100809.44;;;-0.07;71.82
39267;BME280;24967;51.154;13.812;2023-02-28T03:05:21;100808.69;;;-0.10;71.78
39267;BME280;24967;51.154;13.812;2023-02-28T03:07:50;100812.53;;;-0.20;71.67
39267;BME280;24967;51.154;13.812;2023-02-28T03:10:31;100814.25;;;-0.19;71.82
39267;BME280;24967;51.154;13.812;2023-02-28T03:13:15;100815.16;;;-0.20;71.86
39267;BME280;24967;51.154;13.812;2023-02-28T03:15:57;100813.50;;;-0.23;71.75
39267;BME280;24967;51.154;13.812;2023-02-28T03:18:29;100808.31;;;-0.25;71.66
39267;BME280;24967;51.154;13.812;2023-02-28T03:21:06;100813.59;;;-0.26;71.80
39267;BME280;24967;51.154;13.812;2023-02-28T03:23:40;100820.53;;;-0.25;71.40
39267;BME280;24967;51.154;13.812;2023-02-28T03:26:13;100814.63;;;-0.30;71.58
39267;BME280;24967;51.154;13.812;2023-02-28T03:28:49;100820.03;;;-0.36;71.22
39267;BME280;24967;51.154;13.812;2023-02-28T03:31:21;100813.28;;;-0.43;71.53
39267;BME280;24967;51.154;13.812;2023-02-28T03:33:51;100805.44;;;-0.43;71.18
39267;BME280;24967;51.154;13.812;2023-02-28T03:36:25;100809.19;;;-0.51;71.12
39267;BME280;24967;51.154;13.812;2023-02-28T03:38:56;100810.06;;;-0.52;71.27
39267;BME280;24967;51.154;13.812;2023-02-28T03:41:29;100811.44;;;-0.66;70.72
39267;BME280;24967;51.154;13.812;2023-02-28T03:44:01;100806.09;;;-0.63;71.08
39267;BME280;24967;51.154;13.812;2023-02-28T03:46:34;100819.16;;;-0.63;71.04
39267;BME280;24967;51.154;13.812;2023-02-28T03:49:06;100807.91;;;-0.65;70.97
39267;BME280;24967;51.154;13.812;2023-02-28T03:51:38;100817.53;;;-0.67;70.83
39267;BME280;24967;51.154;13.812;2023-02-28T03:54:07;100819.00;;;-0.87;70.53
39267;BME280;24967;51.154;13.812;2023-02-28T03:56:38;100826.03;;;-0.89;70.62
39267;BME280;24967;51.154;13.812;2023-02-28T03:59:12;100820.09;;;-0.94;70.51
39267;BME280;24967;51.154;13.812;2023-02-28T04:01:41;100823.59;;;-0.95;70.77
39267;BME280;24967;51.154;13.812;2023-02-28T04:04:09;100825.38;;;-0.96;70.53
39267;BME280;24967;51.154;13.812;2023-02-28T04:06:38;100830.72;;;-1.00;70.39
39267;BME280;24967;51.154;13.812;2023-02-28T04:09:06;100828.28;;;-1.06;70.62
39267;BME280;24967;51.154;13.812;2023-02-28T04:11:35;100830.88;;;-1.05;71.02
39267;BME280;24967;51.154;13.812;2023-02-28T04:14:03;100833.47;;;-1.05;70.84
39267;BME280;24967;51.154;13.812;2023-02-28T04:16:30;100827.78;;;-1.19;70.68
39267;BME280;24967;51.154;13.812;2023-02-28T04:18:58;100838.41;;;-1.25;70.80
39267;BME280;24967;51.154;13.812;2023-02-28T04:21:28;100837.66;;;-1.29;70.84
39267;BME280;24967;51.154;13.812;2023-02-28T04:23:56;100838.50;;;-1.28;70.70
39267;BME280;24967;51.154;13.812;2023-02-28T04:26:27;100834.22;;;-1.31;70.91
39267;BME280;24967;51.154;13.812;2023-02-28T04:28:54;100844.63;;;-1.29;70.96
39267;BME280;24967;51.154;13.812;2023-02-28T04:31:21;100839.63;;;-1.37;70.60
39267;BME280;24967;51.154;13.812;2023-02-28T04:33:48;100843.97;;;-1.38;70.93
39267;BME280;24967;51.154;13.812;2023-02-28T04:36:14;100843.25;;;-1.43;71.07
39267;BME280;24967;51.154;13.812;2023-02-28T04:38:43;100842.41;;;-1.43;70.71
39267;BME280;24967;51.154;13.812;2023-02-28T04:41:12;100845.16;;;-1.48;71.00
39267;BME280;24967;51.154;13.812;2023-02-28T04:43:38;100847.66;;;-1.45;71.05
39267;BME280;24967;51.154;13.812;2023-02-28T04:46:05;100841.63;;;-1.47;71.05
39267;BME280;24967;51.154;13.812;2023-02-28T04:48:33;100851.31;;;-1.52;71.15
39267;BME280;24967;51.154;13.812;2023-02-28T04:51:00;100849.56;;;-1.51;71.12
39267;BME280;24967;51.154;13.812;2023-02-28T04:53:27;100842.66;;;-1.52;71.22
39267;BME280;24967;51.154;13.812;2023-02-28T04:55:54;100847.94;;;-1.55;70.84
39267;BME280;24967;51.154;13.812;2023-02-28T04:58:22;100846.16;;;-1.53;70.86
39267;BME280;24967;51.154;13.812;2023-02-28T05:00:49;100848.81;;;-1.55;70.93
39267;BME280;24967;51.154;13.812;2023-02-28T05:03:15;100851.50;;;-1.58;71.19
39267;BME280;24967;51.154;13.812;2023-02-28T05:05:42;100852.34;;;-1.57;71.15
39267;BME280;24967;51.154;13.812;2023-02-28T05:08:08;100848.19;;;-1.65;71.09
39267;BME280;24967;51.154;13.812;2023-02-28T05:10:35;100847.34;;;-1.65;71.18
39267;BME280;24967;51.154;13.812;2023-02-28T05:13:02;100851.72;;;-1.66;70.96
39267;BME280;24967;51.154;13.812;2023-02-28T05:15:30;100845.56;;;-2.32;71.53
39267;BME280;24967;51.154;13.812;2023-02-28T05:17:56;100853.63;;;-2.07;71.87
39267;BME280;24967;51.154;13.812;2023-02-28T05:20:23;100843.91;;;-2.00;71.57
39267;BME280;24967;51.154;13.812;2023-02-28T05:22:49;100860.81;;;-2.16;70.69
39267;BME280;24967;51.154;13.812;2023-02-28T05:25:19;100856.81;;;-2.29;70.58
39267;BME280;24967;51.154;13.812;2023-02-28T05:27:46;100863.56;;;-2.21;70.82
39267;BME280;24967;51.154;13.812;2023-02-28T05:30:13;100859.91;;;-2.14;71.23
39267;BME280;24967;51.154;13.812;2023-02-28T05:32:42;100866.78;;;-2.11;71.07
39267;BME280;24967;51.154;13.812;2023-02-28T05:35:09;100858.13;;;-2.12;71.02
39267;BME280;24967;51.154;13.812;2023-02-28T05:37:36;100851.94;;;-2.08;70.44
39267;BME280;24967;51.154;13.812;2023-02-28T05:40:04;100855.53;;;-2.12;70.43
39267;BME280;24967;51.154;13.812;2023-02-28T05:42:35;100861.44;;;-2.07;70.50
39267;BME280;24967;51.154;13.812;2023-02-28T05:45:02;100865.88;;;-2.09;70.79
39267;BME280;24967;51.154;13.812;2023-02-28T05:47:28;100858.97;;;-2.11;70.73
39267;BME280;24967;51.154;13.812;2023-02-28T05:49:56;100868.63;;;-2.15;70.49
39267;BME280;24967;51.154;13.812;2023-02-28T05:52:23;100868.66;;;-2.16;70.85
39267;BME280;24967;51.154;13.812;2023-02-28T05:54:49;100859.06;;;-2.16;70.86
39267;BME280;24967;51.154;13.812;2023-02-28T05:57:16;100870.41;;;-2.17;71.01
39267;BME280;24967;51.154;13.812;2023-02-28T05:59:42;100869.56;;;-2.19;71.12
39267;BME280;24967;51.154;13.812;2023-02-28T06:02:11;100873.41;;;-2.34;71.47
39267;BME280;24967;51.154;13.812;2023-02-28T06:04:38;100879.44;;;-2.32;71.71
39267;BME280;24967;51.154;13.812;2023-02-28T06:07:07;100884.66;;;-2.32;71.33
39267;BME280;24967;51.154;13.812;2023-02-28T06:09:33;100881.13;;;-2.29;71.77
39267;BME280;24967;51.154;13.812;2023-02-28T06:12:01;100880.97;;;-2.23;71.67
39267;BME280;24967;51.154;13.812;2023-02-28T06:14:31;100886.06;;;-2.18;71.60
39267;BME280;24967;51.154;13.812;2023-02-28T06:16:58;100889.56;;;-2.19;71.85
39267;BME280;24967;51.154;13.812;2023-02-28T06:19:25;100894.75;;;-2.18;71.74
39267;BME280;24967;51.154;13.812;2023-02-28T06:21:53;100887.81;;;-2.19;71.78
39267;BME280;24967;51.154;13.812;2023-02-28T06:24:21;100897.38;;;-2.19;71.48
39267;BME280;24967;51.154;13.812;2023-02-28T06:26:49;100892.06;;;-2.15;71.70
39267;BME280;24967;51.154;13.812;2023-02-28T06:29:16;100898.84;;;-2.08;71.88
39267;BME280;24967;51.154;13.812;2023-02-28T06:31:44;100901.50;;;-2.11;71.69
39267;BME280;24967;51.154;13.812;2023-02-28T06:34:11;100902.75;;;-2.25;71.68
39267;BME280;24967;51.154;13.812;2023-02-28T06:36:37;100912.47;;;-2.34;71.97
39267;BME280;24967;51.154;13.812;2023-02-28T06:39:04;100910.66;;;-2.30;72.35
39267;BME280;24967;51.154;13.812;2023-02-28T06:41:33;100920.34;;;-2.35;72.56
39267;BME280;24967;51.154;13.812;2023-02-28T06:44:03;100915.84;;;-2.28;72.04
39267;BME280;24967;51.154;13.812;2023-02-28T06:46:31;100921.06;;;-2.30;72.03
39267;BME280;24967;51.154;13.812;2023-02-28T06:48:58;100913.09;;;-2.22;72.43
39267;BME280;24967;51.154;13.812;2023-02-28T06:51:24;100923.25;;;-2.12;72.47
39267;BME280;24967;51.154;13.812;2023-02-28T06:53:52;100934.41;;;-2.05;72.62
39267;BME280;24967;51.154;13.812;2023-02-28T06:56:19;100938.81;;;-2.09;73.72
39267;BME280;24967;51.154;13.812;2023-02-28T06:58:47;100944.84;;;-2.07;74.83
39267;BME280;24967;51.154;13.812;2023-02-28T07:01:14;100936.94;;;-2.02;75.22
39267;BME280;24967;51.154;13.812;2023-02-28T07:03:41;100932.72;;;-2.08;76.44
39267;BME280;24967;51.154;13.812;2023-02-28T07:06:07;100934.81;;;-1.88;76.15
39267;BME280;24967;51.154;13.812;2023-02-28T07:08:34;100944.84;;;-1.71;76.07
39267;BME280;24967;51.154;13.812;2023-02-28T07:11:02;100934.16;;;-1.60;75.76
39267;BME280;24967;51.154;13.812;2023-02-28T07:13:29;100942.50;;;-1.47;75.42
39267;BME280;24967;51.154;13.812;2023-02-28T07:15:59;100942.38;;;-1.43;75.82
39267;BME280;24967;51.154;13.812;2023-02-28T07:18:27;100941.09;;;-1.28;75.78
39267;BME280;24967;51.154;13.812;2023-02-28T07:20:54;100941.34;;;-1.35;76.92
39267;BME280;24967;51.154;13.812;2023-02-28T07:23:21;100940.84;;;-1.19;76.71
39267;BME280;24967;51.154;13.812;2023-02-28T07:25:52;100937.13;;;-1.08;76.77
39267;BME280;24967;51.154;13.812;2023-02-28T07:28:18;100944.47;;;-1.24;78.71
39267;BME280;24967;51.154;13.812;2023-02-28T07:30:45;100940.69;;;-1.12;79.48
39267;BME280;24967;51.154;13.812;2023-02-28T07:33:12;100946.09;;;-0.87;79.16
39267;BME280;24967;51.154;13.812;2023-02-28T07:35:41;100936.06;;;-0.72;78.37
39267;BME280;24967;51.154;13.812;2023-02-28T07:38:08;100943.91;;;-0.72;78.45
39267;BME280;24967;51.154;13.812;2023-02-28T07:40:35;100941.59;;;-0.53;78.53
39267;BME280;24967;51.154;13.812;2023-02-28T07:43:04;100949.88;;;-0.38;77.94
39267;BME280;24967;51.154;13.812;2023-02-28T07:45:31;100950.38;;;-0.55;79.31
39267;BME280;24967;51.154;13.812;2023-02-28T07:47:59;100944.41;;;-0.31;78.79
39267;BME280;24967;51.154;13.812;2023-02-28T07:50:27;100950.59;;;-0.33;79.41
39267;BME280;24967;51.154;13.812;2023-02-28T07:52:55;100950.81;;;-0.13;79.27
39267;BME280;24967;51.154;13.812;2023-02-28T07:55:26;100949.91;;;0.15;77.67
39267;BME280;24967;51.154;13.812;2023-02-28T07:57:53;100951.31;;;0.00;77.76
39267;BME280;24967;51.154;13.812;2023-02-28T08:00:20;100953.53;;;0.12;78.05
39267;BME280;24967;51.154;13.812;2023-02-28T08:02:50;100949.63;;;0.24;77.71
39267;BME280;24967;51.154;13.812;2023-02-28T08:05:19;100954.06;;;0.22;77.27
39267;BME280;24967;51.154;13.812;2023-02-28T08:07:48;100950.44;;;0.26;78.13
39267;BME280;24967;51.154;13.812;2023-02-28T08:10:15;100953.66;;;0.34;78.22
39267;BME280;24967;51.154;13.812;2023-02-28T08:12:45;100954.06;;;0.22;78.32
39267;BME280;24967;51.154;13.812;2023-02-28T08:15:11;100961.00;;;0.23;78.45
39267;BME280;24967;51.154;13.812;2023-02-28T08:17:38;100955.34;;;0.35;78.61
39267;BME280;24967;51.154;13.812;2023-02-28T08:20:10;100944.47;;;0.48;78.49
39267;BME280;24967;51.154;13.812;2023-02-28T08:22:48;100959.00;;;0.56;79.11
39267;BME280;24967;51.154;13.812;2023-02-28T08:25:15;100947.28;;;0.68;78.72
39267;BME280;24967;51.154;13.812;2023-02-28T08:27:41;100953.94;;;0.77;78.50
39267;BME280;24967;51.154;13.812;2023-02-28T08:30:10;100954.53;;;0.85;78.34
39267;BME280;24967;51.154;13.812;2023-02-28T08:32:37;100956.78;;;0.96;78.53
39267;BME280;24967;51.154;13.812;2023-02-28T08:35:05;100957.16;;;1.08;78.56
39267;BME280;24967;51.154;13.812;2023-02-28T08:37:31;100957.16;;;1.08;77.70
39267;BME280;24967;51.154;13.812;2023-02-28T08:39:59;100956.06;;;1.16;77.98
39267;BME280;24967;51.154;13.812;2023-02-28T08:42:25;100946.56;;;1.36;77.46
39267;BME280;24967;51.154;13.812;2023-02-28T08:44:52;100944.34;;;1.48;77.17
39267;BME280;24967;51.154;13.812;2023-02-28T08:47:18;100951.88;;;1.57;76.83
39267;BME280;24967;51.154;13.812;2023-02-28T08:49:45;100950.97;;;1.58;76.23
39267;BME280;24967;51.154;13.812;2023-02-28T08:52:11;100959.09;;;1.74;76.04
39267;BME280;24967;51.154;13.812;2023-02-28T08:54:38;100958.13;;;1.76;76.27
39267;BME280;24967;51.154;13.812;2023-02-28T08:57:06;100963.53;;;1.72;75.42
39267;BME280;24967;51.154;13.812;2023-02-28T08:59:32;100957.94;;;1.81;74.86
39267;BME280;24967;51.154;13.812;2023-02-28T09:02:01;100959.69;;;2.02;75.43
39267;BME280;24967;51.154;13.812;2023-02-28T09:04:28;100948.56;;;2.18;74.88
39267;BME280;24967;51.154;13.812;2023-02-28T09:06:56;100954.16;;;2.10;74.32
39267;BME280;24967;51.154;13.812;2023-02-28T09:09:24;100953.59;;;1.80;71.24
39267;BME280;24967;51.154;13.812;2023-02-28T09:11:52;100955.63;;;1.95;71.57
39267;BME280;24967;51.154;13.812;2023-02-28T09:14:22;100948.69;;;1.94;71.36
39267;BME280;24967;51.154;13.812;2023-02-28T09:16:49;100949.25;;;2.23;70.70
39267;BME280;24967;51.154;13.812;2023-02-28T09:19:15;100951.75;;;2.26;71.01
39267;BME280;24967;51.154;13.812;2023-02-28T09:21:44;100948.94;;;2.31;70.67
39267;BME280;24967;51.154;13.812;2023-02-28T09:24:11;100954.13;;;2.32;69.14
39267;BME280;24967;51.154;13.812;2023-02-28T09:26:41;100941.00;;;2.32;66.57
39267;BME280;24967;51.154;13.812;2023-02-28T09:29:07;100942.97;;;2.47;65.11
39267;BME280;24967;51.154;13.812;2023-02-28T09:31:37;100945.22;;;2.36;64.90
39267;BME280;24967;51.154;13.812;2023-02-28T09:34:04;100950.47;;;2.57;66.25
39267;BME280;24967;51.154;13.812;2023-02-28T09:36:30;100946.91;;;2.37;62.83
39267;BME280;24967;51.154;13.812;2023-02-28T09:38:58;100950.41;;;2.58;64.16
39267;BME280;24967;51.154;13.812;2023-02-28T09:41:26;100949.69;;;2.55;62.49
39267;BME280;24967;51.154;13.812;2023-02-28T09:43:56;100948.09;;;2.71;63.98
39267;BME280;24967;51.154;13.812;2023-02-28T09:46:29;100944.63;;;2.70;63.60
39267;BME280;24967;51.154;13.812;2023-02-28T09:49:02;100945.09;;;2.60;63.88
39267;BME280;24967;51.154;13.812;2023-02-28T09:51:39;100953.09;;;2.57;64.23
39267;BME280;24967;51.154;13.812;2023-02-28T09:54:12;100953.28;;;2.32;61.93
39267;BME280;24967;51.154;13.812;2023-02-28T09:56:45;100945.00;;;2.41;61.32
39267;BME280;24967;51.154;13.812;2023-02-28T09:59:22;100943.81;;;2.48;62.42
39267;BME280;24967;51.154;13.812;2023-02-28T10:01:57;100948.91;;;2.52;63.91
39267;BME280;24967;51.154;13.812;2023-02-28T10:04:39;100951.66;;;2.70;62.88
39267;BME280;24967;51.154;13.812;2023-02-28T10:07:20;100962.81;;;2.75;60.79
39267;BME280;24967;51.154;13.812;2023-02-28T10:09:52;100952.91;;;2.61;59.08
39267;BME280;24967;51.154;13.812;2023-02-28T10:12:19;100948.06;;;2.52;60.15
39267;BME280;24967;51.154;13.812;2023-02-28T10:14:48;100951.41;;;2.76;61.29
39267;BME280;24967;51.154;13.812;2023-02-28T10:17:19;100952.28;;;2.75;62.20
39267;BME280;24967;51.154;13.812;2023-02-28T10:19:57;100958.22;;;2.60;60.89
39267;BME280;24967;51.154;13.812;2023-02-28T10:22:28;100944.31;;;2.58;58.64
39267;BME280;24967;51.154;13.812;2023-02-28T10:24:58;100951.13;;;2.82;59.11
39267;BME280;24967;51.154;13.812;2023-02-28T10:27:30;100951.44;;;2.74;58.74
39267;BME280;24967;51.154;13.812;2023-02-28T10:29:58;100957.28;;;2.81;58.08
39267;BME280;24967;51.154;13.812;2023-02-28T10:32:27;100951.25;;;2.59;57.63
39267;BME280;24967;51.154;13.812;2023-02-28T10:34:57;100951.69;;;2.48;56.17
39267;BME280;24967;51.154;13.812;2023-02-28T10:37:26;100959.41;;;2.52;59.35
39267;BME280;24967;51.154;13.812;2023-02-28T10:39:52;100954.84;;;2.36;57.11
39267;BME280;24967;51.154;13.812;2023-02-28T10:42:24;100947.22;;;2.29;57.82
39267;BME280;24967;51.154;13.812;2023-02-28T10:45:06;100948.69;;;2.15;60.33
39267;BME280;24967;51.154;13.812;2023-02-28T10:47:35;100947.31;;;2.28;59.04
39267;BME280;24967;51.154;13.812;2023-02-28T10:50:26;100935.56;;;2.57;61.32
39267;BME280;24967;51.154;13.812;2023-02-28T10:52:54;100941.59;;;2.80;63.52
39267;BME280;24967;51.154;13.812;2023-02-28T10:55:23;100941.34;;;2.65;60.15
39267;BME280;24967;51.154;13.812;2023-02-28T10:57:50;100940.63;;;2.82;61.30
39267;BME280;24967;51.154;13.812;2023-02-28T11:00:19;100936.94;;;2.86;61.33
39267;BME280;24967;51.154;13.812;2023-02-28T11:02:47;100932.66;;;3.04;62.80
39267;BME280;24967;51.154;13.812;2023-02-28T11:05:29;100931.16;;;3.17;62.90
39267;BME280;24967;51.154;13.812;2023-02-28T11:08:01;100931.38;;;3.32;59.65
39267;BME280;24967;51.154;13.812;2023-02-28T11:10:31;100926.28;;;3.29;60.35
39267;BME280;24967;51.154;13.812;2023-02-28T11:13:00;100925.34;;;3.30;60.66
39267;BME280;24967;51.154;13.812;2023-02-28T11:15:29;100908.75;;;3.48;61.16
39267;BME280;24967;51.154;13.812;2023-02-28T11:17:57;100925.50;;;3.64;60.81
39267;BME280;24967;51.154;13.812;2023-02-28T11:20:28;100922.56;;;3.71;57.57
39267;BME280;24967;51.154;13.812;2023-02-28T11:22:57;100910.88;;;3.40;56.66
39267;BME280;24967;51.154;13.812;2023-02-28T11:25:28;100924.94;;;3.58;59.54
39267;BME280;24967;51.154;13.812;2023-02-28T11:27:57;100914.72;;;3.52;57.59
39267;BME280;24967;51.154;13.812;2023-02-28T11:30:30;100917.34;;;3.52;57.36
39267;BME280;24967;51.154;13.812;2023-02-28T11:32:57;100910.50;;;3.29;59.89
39267;BME280;24967;51.154;13.812;2023-02-28T11:35:28;100915.31;;;3.57;59.67
39267;BME280;24967;51.154;13.812;2023-02-28T11:37:57;100912.69;;;3.76;57.01
39267;BME280;24967;51.154;13.812;2023-02-28T11:40:30;100916.88;;;3.80;56.13
39267;BME280;24967;51.154;13.812;2023-02-28T11:43:06;100913.81;;;4.06;56.48
39267;BME280;24967;51.154;13.812;2023-02-28T11:45:45;100910.50;;;4.20;58.87
39267;BME280;24967;51.154;13.812;2023-02-28T11:48:20;100904.59;;;3.98;57.60
39267;BME280;24967;51.154;13.812;2023-02-28T11:50:56;100910.59;;;4.19;57.56
39267;BME280;24967;51.154;13.812;2023-02-28T11:53:39;100892.94;;;4.38;55.05
39267;BME280;24967;51.154;13.812;2023-02-28T11:56:12;100901.34;;;4.45;54.11
39267;BME280;24967;51.154;13.812;2023-02-28T11:58:51;100896.72;;;4.15;54.72
39267;BME280;24967;51.154;13.812;2023-02-28T12:01:34;100896.59;;;4.18;55.95
39267;BME280;24967;51.154;13.812;2023-02-28T12:04:15;100905.56;;;4.31;57.49
39267;BME280;24967;51.154;13.812;2023-02-28T12:06:48;100890.69;;;4.30;57.92
39267;BME280;24967;51.154;13.812;2023-02-28T12:09:42;100897.13;;;4.42;55.81
39267;BME280;24967;51.154;13.812;2023-02-28T12:12:21;100899.59;;;4.45;55.38
39267;BME280;24967;51.154;13.812;2023-02-28T12:15:20;100887.53;;;4.24;54.68
39267;BME280;24967;51.154;13.812;2023-02-28T12:17:58;100892.69;;;4.25;54.76
39267;BME280;24967;51.154;13.812;2023-02-28T12:20:33;100890.75;;;4.29;54.95
39267;BME280;24967;51.154;13.812;2023-02-28T12:23:18;100900.13;;;4.17;54.25
39267;BME280;24967;51.154;13.812;2023-02-28T12:25:53;100882.31;;;4.22;54.05
39267;BME280;24967;51.154;13.812;2023-02-28T12:28:25;100890.53;;;4.51;54.89
39267;BME280;24967;51.154;13.812;2023-02-28T12:30:57;100888.91;;;4.31;54.49
39267;BME280;24967;51.154;13.812;2023-02-28T12:33:30;100875.06;;;4.27;56.17
39267;BME280;24967;51.154;13.812;2023-02-28T12:36:01;100879.06;;;4.17;55.79
39267;BME280;24967;51.154;13.812;2023-02-28T12:38:37;100892.84;;;4.05;56.04
39267;BME280;24967;51.154;13.812;2023-02-28T12:41:11;100894.06;;;3.98;55.90
39267;BME280;24967;51.154;13.812;2023-02-28T12:43:42;100891.50;;;3.79;56.61
39267;BME280;24967;51.154;13.812;2023-02-28T12:46:12;100886.78;;;3.85;58.54
39267;BME280;24967;51.154;13.812;2023-02-28T12:48:43;100879.31;;;4.12;58.69
39267;BME280;24967;51.154;13.812;2023-02-28T12:51:12;100875.06;;;4.27;54.92
39267;BME280;24967;51.154;13.812;2023-02-28T12:53:50;100879.78;;;4.21;54.86
39267;BME280;24967;51.154;13.812;2023-02-28T12:56:24;100876.75;;;4.11;56.05
39267;BME280;24967;51.154;13.812;2023-02-28T12:58:58;100871.94;;;4.19;56.47
39267;BME280;24967;51.154;13.812;2023-02-28T13:01:38;100876.97;;;4.41;55.59
39267;BME280;24967;51.154;13.812;2023-02-28T13:04:36;100872.16;;;4.49;53.85
39267;BME280;24967;51.154;13.812;2023-02-28T13:07:19;100859.84;;;4.50;55.64